Aviation Digital Data Service (ADDS)

Output produced by METARs form (0216 UTC 16 January 2019)
found at http://www.aviationweather.gov/metar/data/
 
EPZG 160200Z 25012KT 5000 -RA BR SCT009 BKN017 OVC021 06/06 Q1006
TAF EPZG 152330Z 1600/1609 25016KT 9999 OVC011 
     TEMPO 1600/1606 25016G26KT 3000 RA DZ BR BKN006 
     PROB40 
     TEMPO 1600/1606 BKN004 
     TEMPO 1606/1609 3000 DZ BR BKN006
       
EPKK 160200Z 25017KT 9999 -RA FEW006 BKN011 02/01 Q1004 R25/55//93
TAF EPKK 152330Z 1600/1624 25020KT 5000 -RA BR OVC006 
     PROB40 
     TEMPO 1600/1603 25020G30KT 3000 SNRA BR BKN004 
     TEMPO 1603/1612 25015G25KT 4000 RA BR BKN004 
     BECMG 1612/1615 25010KT BKN020 
     BECMG 1621/1624 VRB02KT
       
TAF EPDE 160200Z 1603/1612 27018KT 9999 SCT007 BKN030 
     TEMPO 1603/1605 27026KT 
     BECMG 1607/1609 27008KT 5000 RA DZRA BR BKN010 OVC017
       
EPSC 160200Z 28011KT 9999 -RA FEW005 SCT007 BKN009 06/05 Q1004
TAF EPSC 152330Z 1600/1624 28015KT 9999 BKN020 
     BECMG 1600/1602 BKN012 
     TEMPO 1600/1606 29015G25KT 4000 RA BKN007 
     TEMPO 1606/1624 29015G25KT -RA BKN007 
     BECMG 1612/1614 22014KT
       
EPRZ 160200Z 27020KT 9999 OVC011 02/01 Q1000 R27/59//93
TAF EPRZ 152330Z 1600/1624 24017KT 8000 -SNRA OVC007 
     TEMPO 1600/1609 24017G27KT 3000 SNRA BR BKN003 
     TEMPO 1609/1618 4000 RA BR BKN012 
     BECMG 1621/1624 22007KT BKN020
       
TAF EPKS 160200Z 1603/1612 27015KT 9999 BKN008 OVC015 
     TEMPO 1603/1609 3000 -RADZ BKN004 OVC012
       
EPPO 160200Z 29012KT 9999 -RA OVC012 06/05 Q1004 R10/290095
TAF EPPO 152330Z 1600/1624 29018KT 9999 OVC012 
     TEMPO 1600/1603 29018G30KT 4000 RA BR BKN004 OVC008 
     TEMPO 1603/1612 4000 RA DZ BR BKN004 OVC012 
     TEMPO 1612/1616 4000 DZ BR BKN008
       
EPLL 160200Z 27013KT 9999 FEW016 BKN021 04/03 Q1001 R25/59//93
TAF EPLL 152330Z 1600/1624 28017KT 9999 BKN009 
     BECMG 1600/1602 BKN018 
     TEMPO 1600/1606 30025G35KT 
     BECMG 1606/1608 BKN012 
     TEMPO 1607/1618 4000 RA BKN006 
     BECMG 1618/1620 BKN018 
     PROB40 
     TEMPO 1618/1624 -RA BKN012
       
EPWA 160200Z 29013KT 260V330 9999 BKN020 03/01 Q0998 R33/52//95 NOSIG
TAF EPWA 152330Z 1600/1624 28017KT 9999 BKN008 
     BECMG 1600/1602 BKN018 
     TEMPO 1600/1606 30025G35KT 
     BECMG 1607/1609 BKN012 
     TEMPO 1608/1619 4000 RA BKN006 
     BECMG 1619/1621 BKN018 
     PROB40 
     TEMPO 1619/1624 -RA BKN012
       
EPKT 160200Z 26016KT 9000 -RA BKN004 OVC005 02/01 Q1004
TAF EPKT 152330Z 1600/1624 26019KT 9999 -RA SCT004 OVC005 
     TEMPO 1600/1609 26019G29KT 4000 RA BR OVC004 
     BECMG 1609/1612 BKN012 
     BECMG 1612/1615 24009KT BKN020 
     PROB30 
     TEMPO 1615/1621 BKN010
       
EPGD 160200Z 30013KT 9999 SCT010 SCT037 00/M01 Q0999 R11/290095
TAF EPGD 152330Z 1600/1624 30018KT 9999 SCT020 
     TEMPO 1600/1603 30028G40KT 
     BECMG 1603/1606 20005KT BKN011 
     TEMPO 1603/1624 -RA BKN005 
     PROB40 
     TEMPO 1604/1607 3000 BR 
     BECMG 1611/1614 22015KT
       
EPWR 160200Z 27016KT 7000 -RA FEW005 BKN010 04/03 Q1007 R11/29//95
TAF EPWR 152330Z 1600/1624 28020KT 9999 BKN012 
     TEMPO 1600/1607 28020G32KT 4000 RA BR BKN006 OVC012 
     BECMG 1607/1610 BKN016 
     TEMPO 1607/1612 4000 RA DZ BR BKN010 
     BECMG 1613/1616 22010KT
       
TAF EPSN 160200Z 1603/1612 29014KT 9999 BKN013 
     TEMPO 1603/1609 4000 RA BKN006
       
EPBY 160200Z 31012KT 9999 -RA SCT013 BKN017 04/03 Q1001
TAF EPBY 152330Z 1600/1624 29015KT 9999 SCT020 
     TEMPO 1600/1603 30025G35KT 
     BECMG 1603/1606 BKN011 
     TEMPO 1603/1624 -RA BKN005
       
EPSY 152130Z 17008KT 1100 R01/P2000N +SN BKN002 M01/M01 Q0994 R01/590692
TAF EPSY 152030Z 1521/1606 17006KT 9999 OVC020 
     TEMPO 1521/1602 3000 SN BKN007 OVC014 
     PROB40 
     TEMPO 1521/1523 1000 +SN BKN003 OVC010